< < Back
Terminal Aerodrome Forecast


Current Version              Previous Versions:   1  2  3  4  5  6  7  8  9  

Terminal Aerodrome Forecast

145
FTUS44 KMOB 281148
TAFPNS
TAF
KPNS 281148Z 2812/2912 35006KT P6SM SKC
     FM281500 36006KT P6SM SCT250
     FM290600 08007KT P6SM BKN100=



Latest METAR

935
SAUS70 KWBC 291300 RRG
MTRPNS
METAR KPNS 291253Z 07005KT 10SM CLR 09/M01 A3035 RMK AO2 SLP282
T00891006


USA.gov is the U.S. government's official web portal to all federal, state and local government web resources and services.